Terminal Aerodrome Forecast
Issued by NWS Cleveland, OH

Home | Current Version | Previous Version | Graphics & Text | Print | Product List | Glossary On
Versions: 1 2 3 4 5 6 7 8 9 10 11 12 13 14 15 16 17
000
FTUS41 KCLE 150536
TAFMFD
TAF
KMFD 150536Z 1506/1606 VRB03KT P6SM FEW250
      TEMPO 1509/1512 5SM BR
     FM151700 27005KT P6SM BKN060
     FM152300 29004KT P6SM SCT250=

USA.gov is the U.S. government's official web portal to all federal, state and local government web resources and services.